메인 페이지
METAR-TAF:

METAR-TAF

공항 :

General Wayne Downing Peoria International Airport

피오리아, 일리노이, 미국

위도: 40-40-03N, 경도: 089-41-02W, 고도: 201m

현재 날씨관측

예보는 12분 전, 13:54시(UTC)에 발표되었습니다.
남서12kt
온도 18°C
습도 77%
기압 1009 hPa
시정: 16.1km
맑음

METAR: KPIA 071354Z 23012KT 10SM CLR 18/14 A2979 RMK AO2 SLP087 T01830139

시각: 09:06 (14:06 UTC)

예보

예보는 2 시간 42분 전, 11:24시(UTC)에 발표되었습니다.
예보 대상 시간: 07일 12시부터 08일 12시까지 (UTC)
남서8kt
시정: 10km
고도 4500ft 상공 구름 보통
고도 25000ft 상공 구름 많음
07일 2000시부터 (UTC)
남서12kt
시정: 10km
고도 6000ft 상공 구름 보통
08일 0000시부터 (UTC)
서남서10kt
시정: 10km
고도 4500ft 상공 구름 많음, 적란운.
시계 내 뇌우
08일 0500시부터 (UTC)
5kt
시정: 10km
고도 25000ft 상공 구름 보통

TAF: KPIA 071124Z 0712/0812 22008KT P6SM SCT045 BKN250 FM072000 22012KT P6SM SCT060 FM080000 24010KT P6SM VCTS BKN045CB FM080500 36005KT P6SM SCT250

4,000개 이상의 공항 관측 자료 및 예보 (METAR 및 TAF 보고).

지도상에서 검색 가능한 기상관측소가 노란 점과 빨간 점으로 표시되어 있습니다.

기상관측소 명을 보려면 표시 위로 마우스를 이동하세요.

날씨 관측과 예보를 보려면 클릭하세요.

지도 변경 : 확대하려면 엑스 표시가 있는 녹색 버튼, 축소하려면 빼기 표시가 있는 녹색 버튼, 다음 페이지의 지도를 보려면 녹색 화살표를 클릭하세요.


METAR-TAF: